createdAt,value
2023-11-03T00:02:09.578Z,74.37
2023-11-03T00:04:38.212Z,74.37
2023-11-03T00:07:06.425Z,74.47
2023-11-03T00:09:35.275Z,74.98
2023-11-03T00:12:04.607Z,75.30
2023-11-03T00:14:32.373Z,75.41
2023-11-03T00:17:00.993Z,75.26
2023-11-03T00:19:29.335Z,75.44
2023-11-03T00:21:57.141Z,75.50
2023-11-03T00:24:24.557Z,75.68
2023-11-03T00:26:55.468Z,75.98
2023-11-03T00:29:24.294Z,75.97
2023-11-03T00:31:52.030Z,76.00
2023-11-03T00:34:19.526Z,75.98
2023-11-03T00:36:47.528Z,76.03
2023-11-03T00:39:15.648Z,76.17
2023-11-03T00:41:43.366Z,76.27
2023-11-03T00:44:12.497Z,76.24
2023-11-03T00:46:40.998Z,76.38
2023-11-03T00:49:13.696Z,76.27
2023-11-03T00:51:41.294Z,76.38
2023-11-03T00:54:10.804Z,76.82
2023-11-03T00:56:40.494Z,77.11
2023-11-03T00:59:09.192Z,77.10
2023-11-03T01:01:37.036Z,77.05
2023-11-03T01:04:04.920Z,77.21
2023-11-03T01:06:32.476Z,77.28
2023-11-03T01:08:59.939Z,77.50
2023-11-03T01:11:27.935Z,77.40
2023-11-03T01:13:57.552Z,77.32
2023-11-03T01:16:26.632Z,77.28
2023-11-03T01:18:54.972Z,77.29
2023-11-03T01:21:23.835Z,77.28
2023-11-03T01:23:53.525Z,77.16
2023-11-03T01:26:26.369Z,76.96
2023-11-03T01:28:54.113Z,76.73
2023-11-03T01:31:23.032Z,76.63
2023-11-03T01:33:51.113Z,76.97
2023-11-03T01:36:18.716Z,77.30
2023-11-03T01:38:46.173Z,77.19
2023-11-03T01:41:14.493Z,76.84
2023-11-03T01:44:02.873Z,76.70
2023-11-03T01:46:30.291Z,76.92
2023-11-03T01:48:57.888Z,77.08
2023-11-03T01:51:26.248Z,77.10
2023-11-03T01:53:54.253Z,77.06
2023-11-03T01:56:21.668Z,76.93
2023-11-03T01:58:49.029Z,76.74
2023-11-03T02:01:16.571Z,76.67
2023-11-03T02:03:44.030Z,76.71
2023-11-03T02:06:12.066Z,76.69
2023-11-03T02:08:39.459Z,76.11
2023-11-03T02:11:08.203Z,75.87
2023-11-03T02:13:35.871Z,76.03
2023-11-03T02:16:04.368Z,76.22
2023-11-03T02:18:32.001Z,76.43
2023-11-03T02:20:59.725Z,76.49
2023-11-03T02:23:27.125Z,76.47
2023-11-03T02:25:54.599Z,75.90
2023-11-03T02:28:22.537Z,75.78
2023-11-03T02:30:49.993Z,75.76
2023-11-03T02:33:17.356Z,75.97
2023-11-03T02:37:47.355Z,75.88
2023-11-03T02:40:15.642Z,75.59
2023-11-03T02:42:43.168Z,75.41
2023-11-03T02:45:11.587Z,75.49
2023-11-03T02:47:39.097Z,75.60
2023-11-03T02:50:07.617Z,75.71
2023-11-03T02:52:35.074Z,75.78
2023-11-03T02:55:02.620Z,75.76
2023-11-03T02:57:30.109Z,75.71
2023-11-03T02:59:57.534Z,75.73
2023-11-03T03:02:24.959Z,76.05
2023-11-03T03:04:52.427Z,76.40
2023-11-03T03:07:19.854Z,76.57
2023-11-03T03:09:47.294Z,76.56
2023-11-03T03:12:16.452Z,76.61
2023-11-03T03:14:43.840Z,76.74
2023-11-03T03:17:11.273Z,77.02
2023-11-03T03:19:38.768Z,77.29
2023-11-03T03:22:06.233Z,77.64
2023-11-03T03:24:33.816Z,77.69
2023-11-03T03:27:01.247Z,77.69
2023-11-03T03:29:28.654Z,77.67
2023-11-03T03:31:56.103Z,77.87
2023-11-03T03:34:23.718Z,78.22
2023-11-03T03:36:51.714Z,78.65
2023-11-03T03:39:19.236Z,78.78
2023-11-03T03:41:52.759Z,78.67
2023-11-03T03:44:20.304Z,78.43
2023-11-03T03:46:47.664Z,78.35
2023-11-03T03:49:15.520Z,78.39
2023-11-03T03:51:43.782Z,78.40
2023-11-03T03:54:11.166Z,78.35
2023-11-03T03:56:38.727Z,78.30
2023-11-03T03:59:06.208Z,78.18
2023-11-03T04:01:33.592Z,78.07
2023-11-03T04:04:01.101Z,77.88
2023-11-03T04:06:28.753Z,77.83
2023-11-03T04:08:56.135Z,77.83
2023-11-03T04:11:23.493Z,77.67
2023-11-03T04:13:50.861Z,77.58
2023-11-03T04:16:18.757Z,77.40
2023-11-03T04:18:46.306Z,77.07
2023-11-03T04:21:14.474Z,76.79
2023-11-03T04:23:42.008Z,76.46
2023-11-03T04:26:09.429Z,76.83
2023-11-03T04:28:37.559Z,77.01
2023-11-03T04:31:05.006Z,77.10
2023-11-03T04:33:32.513Z,76.91
2023-11-03T04:36:00.095Z,76.76
2023-11-03T04:38:27.550Z,76.54
2023-11-03T04:40:55.193Z,76.46
2023-11-03T04:43:22.690Z,76.56
2023-11-03T04:45:50.131Z,76.65
2023-11-03T04:48:17.520Z,76.50
2023-11-03T04:50:44.999Z,76.42
2023-11-03T04:53:12.453Z,76.41
2023-11-03T04:55:39.823Z,76.36
2023-11-03T04:58:07.413Z,76.40
2023-11-03T05:00:34.837Z,76.28
2023-11-03T05:03:02.591Z,76.21
2023-11-03T05:05:33.702Z,75.95
2023-11-03T05:08:01.331Z,75.83
2023-11-03T05:10:28.764Z,75.84
2023-11-03T05:12:56.146Z,75.84
2023-11-03T05:15:23.619Z,75.82
2023-11-03T05:17:51.084Z,75.68
2023-11-03T05:20:18.611Z,75.43
2023-11-03T05:22:46.177Z,75.26
2023-11-03T05:25:16.552Z,75.08
2023-11-03T05:27:44.129Z,74.93
2023-11-03T05:30:12.106Z,74.73
2023-11-03T05:32:39.633Z,74.71
2023-11-03T05:35:07.748Z,74.40
2023-11-03T05:37:35.326Z,74.22
2023-11-03T05:40:05.247Z,74.31
2023-11-03T05:42:33.129Z,74.37
2023-11-03T05:45:00.573Z,74.64
2023-11-03T05:47:28.146Z,74.69
2023-11-03T05:49:55.943Z,74.64
2023-11-03T05:52:23.931Z,74.63
2023-11-03T05:54:51.350Z,74.55
2023-11-03T05:57:18.774Z,74.54
2023-11-03T05:59:46.224Z,74.49
2023-11-03T06:02:33.037Z,74.56
2023-11-03T06:05:00.468Z,74.70
2023-11-03T06:07:28.176Z,74.95
2023-11-03T06:09:55.754Z,74.70
2023-11-03T06:12:23.400Z,74.59
2023-11-03T06:14:50.786Z,74.53
2023-11-03T06:17:18.234Z,74.61
2023-11-03T06:19:45.760Z,74.61
2023-11-03T06:22:13.359Z,74.83
2023-11-03T06:24:40.960Z,74.91
2023-11-03T06:27:08.539Z,74.75
2023-11-03T06:29:35.893Z,74.53
2023-11-03T06:32:04.522Z,74.25
2023-11-03T06:34:34.447Z,74.11
2023-11-03T06:37:01.898Z,74.73
2023-11-03T06:39:29.353Z,75.49
2023-11-03T06:41:56.773Z,75.95
2023-11-03T06:44:24.894Z,76.28
2023-11-03T06:46:52.417Z,76.26
2023-11-03T06:49:20.232Z,76.16
2023-11-03T06:51:47.938Z,76.48
2023-11-03T06:54:15.319Z,76.49
2023-11-03T06:56:43.690Z,76.30
2023-11-03T06:59:11.495Z,76.11
2023-11-03T07:01:38.930Z,76.02
2023-11-03T07:04:08.958Z,75.72
2023-11-03T07:06:39.069Z,75.83
2023-11-03T07:09:06.554Z,75.74
2023-11-03T07:11:36.386Z,75.83
2023-11-03T07:14:06.487Z,75.94
2023-11-03T07:16:34.503Z,75.77
2023-11-03T07:19:01.939Z,75.69
2023-11-03T07:21:29.398Z,75.52
2023-11-03T07:23:56.777Z,75.73
2023-11-03T07:26:25.780Z,75.73
2023-11-03T07:28:53.193Z,75.82
2023-11-03T07:31:22.552Z,75.70
2023-11-03T07:33:50.897Z,75.49
2023-11-03T07:36:22.129Z,75.28
2023-11-03T07:38:50.171Z,74.84
2023-11-03T07:41:17.672Z,74.66
2023-11-03T07:43:45.632Z,74.50
2023-11-03T07:46:14.686Z,74.54
2023-11-03T07:48:43.039Z,74.43
2023-11-03T07:51:11.959Z,74.44
2023-11-03T07:53:39.546Z,74.30
2023-11-03T07:56:07.267Z,74.32
2023-11-03T07:58:34.699Z,74.43
2023-11-03T08:01:02.666Z,74.57
2023-11-03T08:03:30.342Z,74.76
2023-11-03T08:06:00.501Z,74.67
2023-11-03T08:08:28.210Z,74.75
2023-11-03T08:10:55.871Z,74.74
2023-11-03T08:13:23.881Z,74.68
2023-11-03T08:15:54.472Z,74.57
2023-11-03T08:18:22.660Z,74.32
2023-11-03T08:20:52.457Z,74.33
2023-11-03T08:23:23.127Z,74.07
2023-11-03T08:25:50.710Z,73.51
2023-11-03T08:28:18.194Z,73.03
2023-11-03T08:30:45.784Z,72.70
2023-11-03T08:33:15.625Z,72.78
2023-11-03T08:35:43.083Z,72.59
2023-11-03T08:38:10.538Z,72.31
2023-11-03T08:40:38.150Z,72.03
2023-11-03T08:43:06.954Z,71.76
2023-11-03T08:45:39.091Z,71.68
2023-11-03T08:48:08.045Z,71.47
2023-11-03T08:50:35.469Z,71.23
2023-11-03T08:53:06.374Z,71.01
2023-11-03T08:55:35.154Z,70.40
2023-11-03T08:58:02.669Z,70.15
2023-11-03T09:00:30.192Z,69.84
2023-11-03T09:02:58.024Z,69.38
2023-11-03T09:05:25.928Z,69.43
2023-11-03T09:07:53.375Z,69.11
2023-11-03T09:10:21.754Z,68.65
2023-11-03T09:12:50.544Z,68.07
2023-11-03T09:15:19.308Z,67.77
2023-11-03T09:17:47.206Z,67.45
2023-11-03T09:20:19.401Z,66.94
2023-11-03T09:22:49.241Z,66.60
2023-11-03T09:25:17.427Z,66.55
2023-11-03T09:27:44.966Z,65.94
2023-11-03T09:30:12.701Z,65.56
2023-11-03T09:32:41.920Z,65.30
2023-11-03T09:35:10.591Z,65.04
2023-11-03T09:37:38.375Z,64.92
2023-11-03T09:40:08.123Z,64.75
2023-11-03T09:42:38.143Z,64.40
2023-11-03T09:45:10.596Z,63.80
2023-11-03T09:47:41.334Z,63.59
2023-11-03T09:50:12.074Z,63.16
2023-11-03T09:52:47.247Z,62.79
2023-11-03T09:55:16.725Z,62.67
2023-11-03T09:57:44.948Z,62.91
2023-11-03T10:00:17.713Z,63.05
2023-11-03T10:02:45.308Z,63.17
2023-11-03T10:05:17.381Z,63.07
2023-11-03T10:07:58.159Z,62.91
2023-11-03T10:10:26.046Z,62.77
2023-11-03T10:12:53.607Z,62.69
2023-11-03T10:15:22.041Z,62.45
2023-11-03T10:17:49.538Z,62.25
2023-11-03T10:20:17.935Z,62.17
2023-11-03T10:22:48.561Z,62.19
2023-11-03T10:25:17.080Z,61.90
2023-11-03T10:27:50.452Z,61.61
2023-11-03T10:30:22.333Z,61.79
2023-11-03T10:32:50.252Z,61.88
2023-11-03T10:35:17.746Z,62.11
2023-11-03T10:37:47.475Z,62.11
2023-11-03T10:40:15.110Z,61.95
2023-11-03T10:42:49.504Z,62.00
2023-11-03T10:45:22.580Z,62.12
2023-11-03T10:47:50.296Z,62.15
2023-11-03T10:50:17.961Z,62.23
2023-11-03T10:53:24.179Z,62.17
2023-11-03T10:56:22.287Z,62.22
2023-11-03T10:58:54.107Z,62.21
2023-11-03T11:01:33.634Z,62.31
2023-11-03T11:04:23.688Z,61.99
2023-11-03T11:07:07.079Z,61.11
2023-11-03T11:09:45.305Z,60.74
2023-11-03T11:12:14.556Z,60.22
2023-11-03T11:14:42.752Z,59.96
2023-11-03T11:17:33.544Z,59.59
2023-11-03T11:20:01.758Z,59.25
2023-11-03T11:22:29.247Z,59.24
2023-11-03T11:25:02.596Z,59.21
2023-11-03T11:27:30.248Z,59.14
2023-11-03T11:30:14.227Z,59.18
2023-11-03T11:32:54.477Z,59.38
2023-11-03T11:35:24.913Z,59.71
2023-11-03T11:37:52.690Z,59.84
2023-11-03T11:40:20.139Z,59.47
2023-11-03T11:42:47.772Z,59.47
2023-11-03T11:45:19.785Z,59.42
2023-11-03T11:47:48.422Z,59.52
2023-11-03T11:50:17.890Z,59.70
2023-11-03T11:52:47.444Z,59.89
2023-11-03T11:55:14.943Z,60.00
2023-11-03T11:57:44.333Z,60.23
2023-11-03T12:00:19.184Z,60.48
2023-11-03T12:02:55.441Z,60.68
2023-11-03T12:05:25.388Z,61.03
2023-11-03T12:07:55.068Z,61.20
2023-11-03T12:10:22.765Z,61.07
2023-11-03T12:12:50.266Z,61.00
2023-11-03T12:15:20.233Z,60.86
2023-11-03T12:17:49.223Z,60.71
2023-11-03T12:20:16.860Z,60.70
2023-11-03T12:22:44.304Z,60.49
2023-11-03T12:25:11.878Z,60.53
2023-11-03T12:27:41.263Z,60.66
2023-11-03T12:30:09.245Z,60.54
2023-11-03T12:32:37.114Z,60.50
2023-11-03T12:35:09.037Z,60.50
2023-11-03T12:37:41.871Z,60.58
2023-11-03T12:40:20.904Z,60.76
2023-11-03T12:42:48.546Z,60.94
2023-11-03T12:45:23.165Z,61.24
2023-11-03T12:47:55.511Z,61.01
2023-11-03T12:50:23.203Z,60.96
2023-11-03T12:52:57.107Z,61.04
2023-11-03T12:55:27.785Z,61.16
2023-11-03T12:57:56.622Z,61.30
2023-11-03T13:00:26.035Z,61.40
2023-11-03T13:02:54.157Z,61.61
2023-11-03T13:05:22.159Z,61.81
2023-11-03T13:07:53.448Z,62.00
2023-11-03T13:10:21.746Z,62.19
2023-11-03T13:12:49.510Z,62.34
2023-11-03T13:15:20.689Z,62.36
2023-11-03T13:17:50.059Z,62.47
2023-11-03T13:20:19.206Z,62.60
2023-11-03T13:22:47.624Z,62.88
2023-11-03T13:25:16.022Z,63.07
2023-11-03T13:27:44.637Z,63.41
2023-11-03T13:30:12.824Z,63.48
2023-11-03T13:32:43.710Z,63.58
2023-11-03T13:35:12.068Z,63.74
2023-11-03T13:37:40.057Z,63.91
2023-11-03T13:40:08.121Z,64.24
2023-11-03T13:42:35.686Z,64.47
2023-11-03T13:45:06.556Z,64.49
2023-11-03T13:47:36.541Z,64.40
2023-11-03T13:50:11.965Z,64.58
2023-11-03T13:52:45.910Z,64.93
2023-11-03T13:55:14.991Z,65.26
2023-11-03T13:57:43.636Z,65.36
2023-11-03T14:00:15.228Z,65.51
2023-11-03T14:02:42.911Z,65.55
2023-11-03T14:05:12.682Z,65.57
2023-11-03T14:07:41.606Z,65.71
2023-11-03T14:10:15.646Z,65.81
2023-11-03T14:12:45.016Z,65.94
2023-11-03T14:15:14.457Z,66.20
2023-11-03T14:17:43.129Z,66.26
2023-11-03T14:20:11.650Z,66.42
2023-11-03T14:22:42.718Z,66.40
2023-11-03T14:25:12.357Z,66.42
2023-11-03T14:27:41.047Z,66.74
2023-11-03T14:30:13.728Z,66.96
2023-11-03T14:32:41.987Z,66.86
2023-11-03T14:35:15.243Z,66.90
2023-11-03T14:37:43.517Z,67.04
2023-11-03T14:40:16.430Z,67.15
2023-11-03T14:42:48.759Z,67.32
2023-11-03T14:45:17.873Z,67.42
2023-11-03T14:47:45.892Z,67.39
2023-11-03T14:50:13.483Z,67.39
2023-11-03T14:55:48.917Z,67.64
2023-11-03T14:58:21.210Z,67.86
2023-11-03T15:00:51.712Z,67.84
2023-11-03T15:03:23.317Z,67.74
2023-11-03T15:05:53.791Z,67.80
2023-11-03T15:08:21.603Z,68.01
2023-11-03T15:10:49.002Z,68.24
2023-11-03T15:13:22.108Z,68.16
2023-11-03T15:15:51.851Z,68.10
2023-11-03T15:18:21.917Z,68.22
2023-11-03T15:20:55.726Z,68.31
2023-11-03T15:23:25.355Z,68.42
2023-11-03T15:25:52.904Z,68.58
2023-11-03T15:28:23.211Z,68.45
2023-11-03T15:30:52.747Z,68.30
2023-11-03T15:33:20.822Z,68.35
2023-11-03T15:35:49.441Z,68.38
2023-11-03T15:38:19.151Z,68.48
2023-11-03T15:40:46.771Z,68.74
2023-11-03T15:43:14.485Z,68.81
2023-11-03T15:45:48.020Z,68.65
2023-11-03T15:48:17.445Z,68.81
2023-11-03T15:50:45.054Z,68.74
2023-11-03T15:53:17.280Z,68.87
2023-11-03T15:55:54.440Z,68.91
2023-11-03T15:58:22.028Z,68.85
2023-11-03T16:00:51.294Z,68.91
2023-11-03T16:03:19.424Z,69.07
2023-11-03T16:05:47.632Z,69.21
2023-11-03T16:08:15.239Z,69.43
2023-11-03T16:10:43.771Z,69.39
2023-11-03T16:13:13.621Z,69.46
2023-11-03T16:15:42.269Z,69.58
2023-11-03T16:18:11.349Z,69.75
2023-11-03T16:20:39.493Z,69.82
2023-11-03T16:23:07.594Z,69.78
2023-11-03T16:25:35.188Z,69.76
2023-11-03T16:28:04.369Z,69.96
2023-11-03T16:30:32.808Z,70.26
2023-11-03T16:33:01.063Z,70.20
2023-11-03T16:35:28.672Z,70.19
2023-11-03T16:37:56.743Z,70.25
2023-11-03T16:40:24.236Z,70.38
2023-11-03T16:42:51.717Z,70.52
2023-11-03T16:45:20.344Z,70.45
2023-11-03T16:47:48.274Z,70.35
2023-11-03T16:50:17.121Z,70.28
2023-11-03T16:52:44.696Z,70.33
2023-11-03T16:55:14.879Z,70.52
2023-11-03T16:57:42.631Z,70.63
2023-11-03T17:00:13.666Z,70.50
2023-11-03T17:02:45.896Z,70.59
2023-11-03T17:05:16.284Z,70.58
2023-11-03T17:07:44.515Z,70.68
2023-11-03T17:10:12.910Z,70.77
2023-11-03T17:12:53.101Z,70.85
2023-11-03T17:15:28.209Z,70.66
2023-11-03T17:17:56.885Z,70.82
2023-11-03T17:20:24.596Z,70.81
2023-11-03T17:22:52.964Z,70.93
2023-11-03T17:25:21.027Z,71.13
2023-11-03T17:27:51.516Z,71.02
2023-11-03T17:30:20.848Z,71.02
2023-11-03T17:32:53.065Z,71.22
2023-11-03T17:35:26.667Z,71.43
2023-11-03T17:37:55.576Z,71.34
2023-11-03T17:40:24.558Z,71.40
2023-11-03T17:42:53.001Z,71.60
2023-11-03T17:45:21.258Z,71.64
2023-11-03T17:47:50.017Z,71.45
2023-11-03T17:50:20.679Z,71.34
2023-11-03T17:52:54.706Z,71.42
2023-11-03T17:55:26.352Z,71.58
2023-11-03T17:57:54.258Z,71.61
2023-11-03T18:00:22.334Z,71.76
2023-11-03T18:02:49.831Z,71.88
2023-11-03T18:05:17.752Z,71.84
2023-11-03T18:07:45.510Z,71.80
2023-11-03T18:10:13.476Z,71.80
2023-11-03T18:12:41.509Z,72.08
2023-11-03T18:15:11.368Z,72.13
2023-11-03T18:17:39.652Z,72.23
2023-11-03T18:20:14.631Z,72.26
2023-11-03T18:22:42.664Z,72.40
2023-11-03T18:25:11.407Z,72.36
2023-11-03T18:27:39.410Z,72.33
2023-11-03T18:30:13.322Z,72.22
2023-11-03T18:32:41.208Z,72.30
2023-11-03T18:35:11.128Z,72.36
2023-11-03T18:37:40.557Z,72.33
2023-11-03T18:40:14.142Z,72.25
2023-11-03T18:42:42.411Z,72.35
2023-11-03T18:45:10.728Z,72.42
2023-11-03T18:47:38.412Z,72.55
2023-11-03T18:51:23.217Z,72.75
2023-11-03T18:53:02.004Z,72.93
2023-11-03T18:56:38.087Z,73.05
2023-11-03T18:59:21.591Z,73.29
2023-11-03T19:08:42.185Z,73.68
2023-11-03T19:11:09.840Z,73.86
2023-11-03T19:13:37.489Z,74.32
2023-11-03T19:16:05.095Z,74.53
2023-11-03T19:18:37.652Z,74.59
2023-11-03T19:21:06.340Z,74.74
2023-11-03T19:23:36.560Z,75.04
2023-11-03T19:26:04.634Z,75.13
2023-11-03T19:28:33.798Z,74.99
2023-11-03T19:31:05.183Z,75.16
2023-11-03T19:33:33.410Z,75.12
2023-11-03T19:36:01.389Z,75.14
2023-11-03T19:38:29.531Z,75.14
2023-11-03T19:40:57.158Z,75.01
2023-11-03T19:43:25.667Z,74.96
2023-11-03T19:45:53.136Z,74.94
2023-11-03T19:48:20.854Z,74.90
2023-11-03T19:50:49.486Z,74.88
2023-11-03T19:53:20.500Z,74.69
2023-11-03T19:55:51.145Z,74.32
2023-11-03T19:58:19.381Z,74.14
2023-11-03T20:00:51.854Z,73.96
2023-11-03T20:03:21.083Z,73.61
2023-11-03T20:05:49.367Z,73.33
2023-11-03T20:08:17.725Z,72.82
2023-11-03T20:10:48.574Z,72.64
2023-11-03T20:13:16.862Z,72.20
2023-11-03T20:15:44.474Z,71.95
2023-11-03T20:18:13.236Z,71.70
2023-11-03T20:20:40.873Z,69.27
2023-11-03T20:23:08.318Z,66.86
2023-11-03T20:25:35.722Z,64.54
2023-11-03T20:28:03.227Z,62.18
2023-11-03T20:30:30.952Z,60.20
2023-11-03T20:32:59.664Z,59.10
2023-11-03T20:35:27.463Z,58.39
2023-11-03T20:37:56.885Z,57.60
2023-11-03T20:40:24.405Z,56.62
2023-11-03T20:42:51.891Z,55.72
2023-11-03T20:45:19.359Z,55.30
2023-11-03T20:47:47.224Z,54.65
2023-11-03T20:50:16.048Z,53.37
2023-11-03T20:52:43.562Z,53.18
2023-11-03T20:55:12.638Z,52.79
2023-11-03T20:57:40.425Z,52.32
2023-11-03T21:00:10.031Z,52.04
2023-11-03T21:02:37.460Z,51.92
2023-11-03T21:05:05.417Z,51.72
2023-11-03T21:07:32.982Z,51.54
2023-11-03T21:10:00.404Z,51.27
2023-11-03T21:12:27.856Z,51.28
2023-11-03T21:14:55.400Z,51.25
2023-11-03T21:17:25.400Z,51.17
2023-11-03T21:19:52.788Z,51.19
2023-11-03T21:22:21.667Z,51.35
2023-11-03T21:24:49.150Z,51.70
2023-11-03T21:27:16.569Z,51.61
2023-11-03T21:29:43.969Z,52.05
2023-11-03T21:32:12.036Z,51.92
2023-11-03T21:34:40.345Z,51.91
2023-11-03T21:37:07.996Z,52.01
2023-11-03T21:39:35.477Z,52.30
2023-11-03T21:42:02.926Z,52.60
2023-11-03T21:44:30.531Z,52.71
2023-11-03T21:46:58.247Z,52.92
2023-11-03T21:49:26.167Z,52.93
2023-11-03T21:51:53.588Z,52.92
2023-11-03T21:54:21.019Z,51.87
2023-11-03T21:56:48.512Z,50.51
2023-11-03T21:59:16.198Z,50.18
2023-11-03T22:01:43.633Z,49.68
2023-11-03T22:04:11.161Z,49.22
2023-11-03T22:06:38.654Z,49.27
2023-11-03T22:09:09.867Z,49.30
2023-11-03T22:11:38.057Z,49.03
2023-11-03T22:14:05.545Z,49.04
2023-11-03T22:16:33.120Z,49.03
2023-11-03T22:19:01.235Z,48.98
2023-11-03T22:21:28.741Z,48.88
2023-11-03T22:23:56.164Z,48.50
2023-11-03T22:26:32.566Z,48.30
2023-11-03T22:29:04.671Z,48.31
2023-11-03T22:31:32.051Z,48.20
2023-11-03T22:33:59.599Z,48.04
2023-11-03T22:36:28.104Z,47.93
2023-11-03T22:38:55.500Z,47.97
2023-11-03T22:41:24.604Z,47.89
2023-11-03T22:43:51.995Z,47.81
2023-11-03T22:46:19.451Z,47.81
2023-11-03T22:48:47.225Z,47.77
2023-11-03T22:51:16.324Z,48.01
2023-11-03T22:53:44.143Z,48.30
2023-11-03T22:56:12.073Z,48.53
2023-11-03T22:58:39.523Z,48.57
2023-11-03T23:01:07.314Z,48.70
2023-11-03T23:03:34.886Z,48.58
2023-11-03T23:06:02.421Z,48.51
2023-11-03T23:08:30.748Z,48.29
2023-11-03T23:10:58.294Z,48.25
2023-11-03T23:13:25.621Z,48.42
2023-11-03T23:15:53.799Z,48.27
2023-11-03T23:18:21.610Z,48.09
2023-11-03T23:20:49.705Z,48.05
2023-11-03T23:23:17.079Z,47.91
2023-11-03T23:25:44.742Z,47.99
2023-11-03T23:28:12.648Z,47.79
2023-11-03T23:30:40.177Z,47.67
2023-11-03T23:33:07.836Z,47.43
2023-11-03T23:35:35.362Z,47.44
2023-11-03T23:38:02.954Z,47.57
2023-11-03T23:40:31.869Z,47.67
2023-11-03T23:42:59.390Z,47.93
2023-11-03T23:45:26.883Z,48.14
2023-11-03T23:47:54.326Z,47.91
2023-11-03T23:50:22.817Z,47.71
2023-11-03T23:52:50.308Z,47.74
2023-11-03T23:55:17.766Z,47.63
2023-11-03T23:57:45.230Z,47.63
